Time;durP1;ratioP1;P1;durP2;ratioP2;P2;SDS_P1;SDS_P2;PMS_P1;PMS_P2;Temp;Humidity;BMP_temperature;BMP_pressure;BME280_temperature;BME280_humidity;BME280_pressure;Samples;Min_cycle;Max_cycle;Signal;HPM_P1;HPM_P2
2023/03/06 00:01:27;;;;;;;1.57;1.47;;;2.40;99.90;;;;;;5006581;28;20253;-69
2023/03/06 00:03:54;;;;;;;2.33;1.33;;;2.40;99.90;;;;;;5006259;28;20296;-68
2023/03/06 00:06:21;;;;;;;2.97;2.20;;;2.40;99.90;;;;;;5006681;28;20214;-69
2023/03/06 00:08:48;;;;;;;1.00;1.00;;;2.40;99.90;;;;;;5006095;28;20240;-69
2023/03/06 00:11:15;;;;;;;1.13;1.10;;;2.40;99.90;;;;;;5009346;28;20328;-70
2023/03/06 00:13:43;;;;;;;2.37;1.30;;;2.40;99.90;;;;;;5009829;28;20248;-69
2023/03/06 00:16:10;;;;;;;3.40;1.63;;;2.30;99.90;;;;;;5010568;28;20289;-69
2023/03/06 00:18:37;;;;;;;1.40;1.10;;;2.40;99.90;;;;;;5010001;28;20202;-70
2023/03/06 00:21:07;;;;;;;2.07;1.63;;;2.30;99.90;;;;;;5010197;28;20296;-69
2023/03/06 00:23:35;;;;;;;2.70;1.57;;;2.40;99.90;;;;;;5010167;28;20657;-68
2023/03/06 00:26:02;;;;;;;1.73;1.50;;;2.40;99.90;;;;;;5009902;28;20208;-68
2023/03/06 00:28:30;;;;;;;2.43;1.80;;;2.40;99.90;;;;;;5010134;28;20276;-69
2023/03/06 00:30:58;;;;;;;1.70;1.60;;;2.40;99.90;;;;;;5009712;28;20233;-69
2023/03/06 00:33:25;;;;;;;2.13;1.73;;;2.30;99.90;;;;;;5009906;28;20625;-69
2023/03/06 00:35:52;;;;;;;1.70;1.60;;;2.40;99.90;;;;;;5010843;28;20308;-69
2023/03/06 00:38:19;;;;;;;2.10;1.90;;;2.40;99.90;;;;;;5029717;28;20645;-69
2023/03/06 00:40:46;;;;;;;2.23;2.07;;;2.40;99.90;;;;;;5027309;28;20209;-69
2023/03/06 00:43:13;;;;;;;2.33;2.20;;;2.40;99.90;;;;;;5009734;28;20228;-68
2023/03/06 00:45:40;;;;;;;2.60;2.40;;;2.40;99.90;;;;;;5009572;28;20208;-68
2023/03/06 00:48:08;;;;;;;2.90;2.50;;;2.40;99.90;;;;;;5010077;28;20300;-68
2023/03/06 00:50:35;;;;;;;2.70;2.50;;;2.40;99.90;;;;;;5010282;28;20661;-74
2023/03/06 00:53:02;;;;;;;2.70;2.50;;;2.40;99.90;;;;;;5010174;28;20269;-69
2023/03/06 00:55:29;;;;;;;2.40;2.30;;;2.40;99.90;;;;;;5009761;28;20207;-69
2023/03/06 00:57:56;;;;;;;2.40;2.30;;;2.40;99.90;;;;;;5009759;28;20209;-68
2023/03/06 01:00:23;;;;;;;3.50;2.77;;;2.40;99.90;;;;;;5009822;28;20328;-68
2023/03/06 01:02:52;;;;;;;2.60;2.40;;;2.40;99.90;;;;;;5009641;28;20316;-69
2023/03/06 01:05:20;;;;;;;2.60;2.43;;;2.40;99.90;;;;;;5009729;28;20212;-68
2023/03/06 01:07:47;;;;;;;2.60;2.47;;;2.40;99.90;;;;;;5009555;28;20216;-69
2023/03/06 01:10:14;;;;;;;2.60;2.40;;;2.40;99.90;;;;;;5009837;28;20213;-69
2023/03/06 01:12:41;;;;;;;2.47;2.37;;;2.40;99.90;;;;;;5009529;28;20213;-68
2023/03/06 01:15:09;;;;;;;2.80;2.60;;;2.50;99.90;;;;;;5009473;28;20297;-69
2023/03/06 01:17:36;;;;;;;2.63;2.50;;;2.40;99.90;;;;;;5009493;28;20292;-68
2023/03/06 01:20:03;;;;;;;3.67;2.80;;;2.50;99.90;;;;;;5009629;28;20213;-68
2023/03/06 01:22:31;;;;;;;3.60;3.30;;;2.50;99.90;;;;;;5008267;28;20305;-69
2023/03/06 01:24:58;;;;;;;3.33;3.03;;;2.50;99.90;;;;;;5009129;28;20300;-69
2023/03/06 01:27:25;;;;;;;3.60;3.30;;;2.50;99.90;;;;;;5009255;28;20299;-69
2023/03/06 01:29:52;;;;;;;4.20;3.80;;;2.50;99.90;;;;;;5009013;28;20296;-69
2023/03/06 01:32:20;;;;;;;3.90;3.60;;;2.50;99.90;;;;;;5008979;28;20320;-69
2023/03/06 01:34:47;;;;;;;4.03;3.73;;;2.40;99.90;;;;;;5009070;28;20300;-70
2023/03/06 01:37:14;;;;;;;4.73;4.33;;;2.40;99.90;;;;;;5009192;28;20251;-69
2023/03/06 01:39:42;;;;;;;4.20;3.90;;;2.40;99.90;;;;;;5008816;28;20444;-69
2023/03/06 01:42:09;;;;;;;4.60;4.20;;;2.30;99.90;;;;;;5009140;28;20304;-70
2023/03/06 01:44:36;;;;;;;4.40;4.07;;;2.20;99.90;;;;;;5008662;28;20207;-70
2023/03/06 01:47:03;;;;;;;5.13;4.63;;;2.20;99.90;;;;;;5009079;28;20292;-70
2023/03/06 01:49:34;;;;;;;6.00;4.50;;;2.10;99.90;;;;;;5008742;28;20206;-69
2023/03/06 01:52:05;;;;;;;4.77;4.37;;;2.00;99.90;;;;;;5008911;28;20322;-71
2023/03/06 01:54:35;;;;;;;4.70;4.30;;;2.00;99.90;;;;;;5008720;28;20285;-71
2023/03/06 01:57:09;;;;;;;5.00;4.50;;;2.10;99.90;;;;;;5008794;28;20194;-70
2023/03/06 01:59:38;;;;;;;4.90;4.50;;;2.10;99.90;;;;;;5008853;28;20312;-71
2023/03/06 02:02:07;;;;;;;4.53;4.13;;;2.10;99.90;;;;;;5008414;28;20233;-71
2023/03/06 02:04:35;;;;;;;4.80;4.27;;;2.20;99.90;;;;;;5008362;28;20212;-71
2023/03/06 02:07:04;;;;;;;5.00;4.50;;;2.20;99.90;;;;;;5008219;28;20582;-71
2023/03/06 02:09:32;;;;;;;4.93;4.07;;;2.20;99.90;;;;;;5007930;28;20245;-71
2023/03/06 02:12:00;;;;;;;4.10;3.80;;;2.10;99.90;;;;;;5001770;28;20401;-71
2023/03/06 02:14:30;;;;;;;4.70;4.30;;;2.20;99.90;;;;;;5016119;28;20263;-71
2023/03/06 02:16:56;;;;;;;4.97;4.47;;;2.10;99.90;;;;;;5013603;28;20302;-72
2023/03/06 02:19:36;;;;;;;4.70;4.20;;;2.10;99.90;;;;;;5008331;28;20210;-71
2023/03/06 02:22:03;;;;;;;4.83;4.20;;;2.00;99.90;;;;;;5008588;28;20269;-71
2023/03/06 02:24:39;;;;;;;4.57;4.17;;;1.90;99.90;;;;;;5008137;28;20571;-72
2023/03/06 02:27:09;;;;;;;5.63;4.20;;;2.00;99.90;;;;;;5008150;28;20292;-72
2023/03/06 02:29:36;;;;;;;4.93;4.40;;;2.00;99.90;;;;;;5010627;28;20241;-72
2023/03/06 02:32:04;;;;;;;5.40;4.13;;;2.00;99.90;;;;;;5027736;28;20236;-72
2023/03/06 02:34:58;;;;;;;6.40;4.50;;;1.90;99.90;;;;;;5027950;28;20288;-72
2023/03/06 02:37:26;;;;;;;5.90;4.20;;;1.90;99.90;;;;;;5026980;28;20575;-70
2023/03/06 02:40:00;;;;;;;4.60;4.10;;;2.00;99.90;;;;;;5007719;28;20328;-70
2023/03/06 02:42:30;;;;;;;5.87;3.87;;;2.00;99.90;;;;;;5007935;28;20292;-70
2023/03/06 02:44:58;;;;;;;3.87;3.57;;;2.00;99.90;;;;;;5007785;28;20296;-70
2023/03/06 02:47:25;;;;;;;5.50;3.73;;;2.00;99.90;;;;;;5007812;28;20209;-70
2023/03/06 02:49:52;;;;;;;4.13;3.70;;;2.00;99.90;;;;;;5007535;28;20208;-70
2023/03/06 02:52:20;;;;;;;4.20;3.80;;;2.00;99.90;;;;;;5007989;28;20324;-70
2023/03/06 02:54:46;;;;;;;4.20;3.80;;;2.00;99.90;;;;;;5007547;28;20206;-70
2023/03/06 02:57:13;;;;;;;4.87;3.90;;;2.10;99.90;;;;;;5008011;28;20587;-70
2023/03/06 02:59:41;;;;;;;9.10;4.37;;;2.10;99.90;;;;;;5007321;28;20779;-70
2023/03/06 03:02:08;;;;;;;3.70;3.40;;;2.10;99.90;;;;;;5007781;28;20312;-71
2023/03/06 03:04:35;;;;;;;4.60;3.93;;;2.10;99.90;;;;;;5007300;28;20252;-70
2023/03/06 03:07:02;;;;;;;4.13;3.83;;;2.10;99.90;;;;;;5007744;28;20215;-70
2023/03/06 03:09:35;;;;;;;6.40;3.70;;;2.10;99.90;;;;;;5007516;28;20283;-70
2023/03/06 03:12:02;;;;;;;4.37;3.97;;;2.10;99.90;;;;;;5007319;28;20229;-69
2023/03/06 03:14:29;;;;;;;4.07;3.47;;;2.20;99.90;;;;;;5007383;28;20292;-70
2023/03/06 03:16:58;;;;;;;3.37;3.10;;;2.10;99.90;;;;;;5007637;28;20304;-73
2023/03/06 03:19:24;;;;;;;3.83;3.47;;;2.10;99.90;;;;;;5007562;28;20318;-71
2023/03/06 03:21:51;;;;;;;3.50;3.27;;;2.20;99.90;;;;;;5007476;28;20209;-72
2023/03/06 03:24:18;;;;;;;3.50;3.20;;;2.20;99.90;;;;;;5005731;28;20240;-72
2023/03/06 03:26:45;;;;;;;5.97;2.90;;;2.20;99.90;;;;;;4996035;28;20211;-72
2023/03/06 03:29:12;;;;;;;3.20;3.00;;;2.20;99.90;;;;;;5005553;28;20213;-72
2023/03/06 03:31:39;;;;;;;3.20;3.00;;;2.20;99.90;;;;;;5005625;28;20264;-71
2023/03/06 03:34:07;;;;;;;3.90;3.10;;;2.20;99.90;;;;;;5005298;28;20213;-70
2023/03/06 03:36:34;;;;;;;5.27;2.80;;;2.20;99.90;;;;;;5004902;28;20209;-70
2023/03/06 03:39:02;;;;;;;3.33;2.77;;;2.20;99.90;;;;;;5004704;28;20664;-71
2023/03/06 03:41:29;;;;;;;4.90;3.03;;;2.20;99.90;;;;;;5005306;28;20601;-70
2023/03/06 03:43:56;;;;;;;3.07;2.77;;;2.20;99.90;;;;;;5004932;28;20259;-72
2023/03/06 03:46:22;;;;;;;3.03;2.73;;;2.20;99.90;;;;;;5008067;28;20387;-71
2023/03/06 03:48:49;;;;;;;2.90;2.70;;;2.20;99.90;;;;;;5009169;28;20209;-71
2023/03/06 03:51:18;;;;;;;7.23;3.20;;;2.30;99.90;;;;;;5009434;28;20221;-70
2023/03/06 03:53:45;;;;;;;3.37;3.03;;;2.30;99.90;;;;;;5009299;28;20295;-71
2023/03/06 03:56:12;;;;;;;2.80;2.60;;;2.20;99.90;;;;;;5009008;28;20292;-73
2023/03/06 03:58:39;;;;;;;3.40;2.70;;;2.20;99.90;;;;;;5008947;28;20563;-73
2023/03/06 04:01:07;;;;;;;4.27;3.10;;;2.30;99.90;;;;;;5009246;28;20261;-71
2023/03/06 04:03:34;;;;;;;2.97;2.70;;;2.30;99.90;;;;;;5009860;28;20260;-71
2023/03/06 04:06:01;;;;;;;3.00;2.20;;;2.20;99.90;;;;;;5009608;28;20205;-71
2023/03/06 04:08:29;;;;;;;2.87;1.97;;;2.20;99.90;;;;;;5010373;28;20328;-71
2023/03/06 04:10:56;;;;;;;1.83;1.73;;;2.10;99.90;;;;;;5011053;28;20213;-73
2023/03/06 04:13:23;;;;;;;1.80;1.70;;;2.00;99.90;;;;;;5009490;28;20295;-71
2023/03/06 04:15:52;;;;;;;2.10;1.90;;;1.90;99.90;;;;;;5010576;28;20304;-71
2023/03/06 04:18:20;;;;;;;1.87;1.77;;;1.90;99.90;;;;;;5010756;28;20305;-71
2023/03/06 04:20:48;;;;;;;1.80;1.70;;;1.90;99.90;;;;;;5010290;28;20204;-71
2023/03/06 04:23:16;;;;;;;2.00;1.73;;;1.90;99.90;;;;;;5010642;28;20300;-71
2023/03/06 04:25:44;;;;;;;1.93;1.83;;;1.80;99.90;;;;;;5010598;28;20627;-72
2023/03/06 04:28:12;;;;;;;2.00;1.90;;;1.90;99.90;;;;;;5010309;28;20210;-71
2023/03/06 04:30:38;;;;;;;1.60;1.50;;;1.80;99.90;;;;;;5010461;28;20212;-72
2023/03/06 04:33:05;;;;;;;1.70;1.53;;;1.80;99.90;;;;;;5010315;28;20252;-72
2023/03/06 04:35:32;;;;;;;1.40;1.40;;;1.80;99.90;;;;;;5010199;28;20219;-72
2023/03/06 04:37:59;;;;;;;1.60;1.50;;;1.70;99.90;;;;;;5028467;28;20316;-72
2023/03/06 04:40:28;;;;;;;1.83;1.70;;;1.70;99.90;;;;;;5029758;28;20642;-71
2023/03/06 04:42:57;;;;;;;1.60;1.50;;;1.80;99.90;;;;;;4990379;28;20268;-71
2023/03/06 04:45:25;;;;;;;1.63;1.53;;;1.70;99.90;;;;;;4990953;28;20300;-72
2023/03/06 04:47:52;;;;;;;1.70;1.60;;;1.70;99.90;;;;;;4990356;28;20246;-71
2023/03/06 04:50:20;;;;;;;1.80;1.70;;;1.70;99.90;;;;;;5007572;28;20301;-71
2023/03/06 04:52:47;;;;;;;1.90;1.80;;;1.70;99.90;;;;;;5009755;28;20679;-70
2023/03/06 04:55:16;;;;;;;1.50;1.40;;;1.60;99.90;;;;;;5010275;28;20275;-71
2023/03/06 04:57:44;;;;;;;1.50;1.50;;;1.70;99.90;;;;;;5008237;28;20692;-71
2023/03/06 05:00:16;;;;;;;1.57;1.50;;;1.60;99.90;;;;;;5009388;28;20336;-70
2023/03/06 05:02:43;;;;;;;1.37;1.37;;;1.60;99.90;;;;;;5009367;28;20233;-71
2023/03/06 05:05:13;;;;;;;1.87;1.77;;;1.60;99.90;;;;;;5009983;28;20300;-71
2023/03/06 05:07:40;;;;;;;1.47;1.37;;;1.60;99.90;;;;;;5009169;28;20299;-71
2023/03/06 05:10:10;;;;;;;1.60;1.50;;;1.50;99.90;;;;;;5009698;28;20248;-71
2023/03/06 05:12:38;;;;;;;1.50;1.50;;;1.50;99.90;;;;;;5009588;28;20316;-71
2023/03/06 05:15:06;;;;;;;1.47;1.47;;;1.50;99.90;;;;;;5009566;28;20208;-71
2023/03/06 05:17:34;;;;;;;1.80;1.70;;;1.50;99.90;;;;;;5009503;28;20592;-71
2023/03/06 05:20:01;;;;;;;1.83;1.60;;;1.40;99.90;;;;;;5009663;28;20207;-72
2023/03/06 05:22:28;;;;;;;1.83;1.73;;;1.40;99.90;;;;;;5009690;28;20209;-71
2023/03/06 05:24:55;;;;;;;2.83;1.80;;;1.40;99.90;;;;;;5009626;28;20237;-71
2023/03/06 05:27:22;;;;;;;1.90;1.80;;;1.40;99.90;;;;;;5009834;28;20229;-71
2023/03/06 05:29:49;;;;;;;1.83;1.73;;;1.40;99.90;;;;;;5009089;28;20205;-72
2023/03/06 05:32:16;;;;;;;1.63;1.53;;;1.50;99.90;;;;;;5009443;28;20605;-71
2023/03/06 05:34:44;;;;;;;2.00;1.90;;;1.40;99.90;;;;;;5009489;28;20621;-72
2023/03/06 05:37:11;;;;;;;1.87;1.77;;;1.40;99.90;;;;;;5009497;28;20316;-71
2023/03/06 05:39:38;;;;;;;1.70;1.60;;;1.40;99.90;;;;;;5009329;28;20210;-72
2023/03/06 05:42:05;;;;;;;1.60;1.60;;;1.40;99.90;;;;;;5009346;28;20219;-72
2023/03/06 05:44:33;;;;;;;2.30;1.80;;;1.40;99.90;;;;;;5008768;28;20304;-71
2023/03/06 05:47:00;;;;;;;1.60;1.50;;;1.40;99.90;;;;;;5008804;28;20299;-71
2023/03/06 05:49:31;;;;;;;1.90;1.80;;;1.40;99.90;;;;;;5009277;28;20235;-71
2023/03/06 05:51:59;;;;;;;2.30;2.10;;;1.40;99.90;;;;;;5008949;28;20323;-71
2023/03/06 05:54:26;;;;;;;2.33;2.23;;;1.40;99.90;;;;;;5008855;28;20288;-72
2023/03/06 05:56:53;;;;;;;1.90;1.80;;;1.40;99.90;;;;;;5008612;28;20223;-71
2023/03/06 05:59:20;;;;;;;2.30;2.10;;;1.40;99.90;;;;;;5006226;28;20216;-71
2023/03/06 06:01:46;;;;;;;1.90;1.80;;;1.40;99.90;;;;;;4998315;28;20225;-71
2023/03/06 06:04:13;;;;;;;2.33;2.23;;;1.40;99.90;;;;;;5008817;28;20212;-70
2023/03/06 06:06:40;;;;;;;2.30;2.20;;;1.40;99.90;;;;;;5008580;28;20336;-71
2023/03/06 06:09:08;;;;;;;2.20;2.10;;;1.40;99.90;;;;;;5007963;28;20329;-71
2023/03/06 06:11:35;;;;;;;2.13;2.03;;;1.40;99.90;;;;;;5008492;28;20648;-71
2023/03/06 06:14:02;;;;;;;2.30;2.20;;;1.40;99.90;;;;;;5008435;28;20284;-72
2023/03/06 06:16:29;;;;;;;2.30;2.20;;;1.40;99.90;;;;;;5008342;28;20833;-70
2023/03/06 06:18:57;;;;;;;2.40;2.20;;;1.50;99.90;;;;;;5008197;28;20205;-71
2023/03/06 06:21:25;;;;;;;2.40;2.30;;;1.50;99.90;;;;;;5007939;28;20723;-72
2023/03/06 06:23:52;;;;;;;2.50;2.40;;;1.50;99.90;;;;;;5008203;28;20303;-71
2023/03/06 06:26:20;;;;;;;2.10;2.00;;;1.60;99.90;;;;;;5008403;28;20301;-71
2023/03/06 06:28:47;;;;;;;2.27;2.17;;;1.70;99.90;;;;;;5007844;28;20228;-72
2023/03/06 06:31:14;;;;;;;2.17;2.07;;;1.70;99.90;;;;;;5008161;28;20268;-71
2023/03/06 06:33:41;;;;;;;2.20;2.00;;;1.70;99.90;;;;;;5008057;28;20376;-72
2023/03/06 06:36:15;;;;;;;2.20;2.10;;;1.60;99.90;;;;;;5008160;28;20237;-72
2023/03/06 06:38:43;;;;;;;2.20;2.10;;;1.60;99.90;;;;;;5007668;28;20237;-72
2023/03/06 06:41:10;;;;;;;2.10;1.90;;;1.60;99.90;;;;;;5007567;28;20197;-71
2023/03/06 06:43:38;;;;;;;2.00;1.90;;;1.60;99.90;;;;;;5007456;28;20213;-71
2023/03/06 06:46:05;;;;;;;2.60;2.50;;;1.60;99.90;;;;;;5007657;28;20734;-72
2023/03/06 06:48:32;;;;;;;1.80;1.70;;;1.60;99.90;;;;;;5007427;28;20216;-71
2023/03/06 06:51:00;;;;;;;2.17;2.07;;;1.60;99.90;;;;;;5007412;28;20731;-71
2023/03/06 06:53:26;;;;;;;2.17;2.07;;;1.60;99.90;;;;;;5007858;28;20244;-72
2023/03/06 06:55:53;;;;;;;2.07;1.97;;;1.50;99.90;;;;;;5007707;28;20300;-72
2023/03/06 06:58:20;;;;;;;2.10;2.00;;;1.50;99.90;;;;;;5007375;28;21027;-72
2023/03/06 07:00:48;;;;;;;2.00;1.90;;;1.50;99.90;;;;;;5007245;28;20308;-71
2023/03/06 07:03:15;;;;;;;2.10;2.00;;;1.50;99.90;;;;;;5007570;28;20290;-71
2023/03/06 07:05:42;;;;;;;2.40;2.30;;;1.50;99.90;;;;;;5007504;28;20304;-72
2023/03/06 07:08:09;;;;;;;2.37;2.17;;;1.50;99.90;;;;;;5007480;28;20349;-71
2023/03/06 07:10:38;;;;;;;2.30;2.17;;;1.50;99.90;;;;;;5007446;28;20277;-72
2023/03/06 07:13:05;;;;;;;2.60;2.40;;;1.40;99.90;;;;;;5007519;28;20233;-71
2023/03/06 07:15:32;;;;;;;2.50;2.30;;;1.40;99.90;;;;;;5007481;28;20292;-73
2023/03/06 07:18:00;;;;;;;2.83;2.63;;;1.40;99.90;;;;;;5007802;28;20280;-71
2023/03/06 07:20:27;;;;;;;3.00;2.70;;;1.40;99.90;;;;;;5006713;28;20755;-71
2023/03/06 07:22:54;;;;;;;2.70;2.50;;;1.50;99.90;;;;;;5007372;28;20300;-73
2023/03/06 07:25:21;;;;;;;2.27;2.17;;;1.50;99.90;;;;;;5007725;28;20233;-73
2023/03/06 07:27:50;;;;;;;2.47;2.27;;;1.50;99.90;;;;;;5007625;28;20304;-71
2023/03/06 07:30:17;;;;;;;2.47;2.37;;;1.50;99.90;;;;;;5007389;28;20304;-72
2023/03/06 07:32:44;;;;;;;2.30;1.93;;;1.40;99.90;;;;;;5007297;28;20237;-72
2023/03/06 07:35:15;;;;;;;2.30;2.10;;;1.40;99.90;;;;;;5007740;28;20989;-73
2023/03/06 07:37:41;;;;;;;2.07;1.97;;;1.40;99.90;;;;;;5007146;28;20620;-73
2023/03/06 07:40:11;;;;;;;2.10;2.00;;;1.40;99.90;;;;;;5007497;28;20309;-72
2023/03/06 07:42:38;;;;;;;3.13;1.87;;;1.40;99.90;;;;;;5007004;28;20292;-72
2023/03/06 07:45:07;;;;;;;1.83;1.73;;;1.40;99.90;;;;;;5007204;28;20209;-72
2023/03/06 07:47:34;;;;;;;2.27;1.60;;;1.40;99.90;;;;;;5006974;28;20240;-73
2023/03/06 07:50:02;;;;;;;2.50;1.50;;;1.50;99.90;;;;;;5007357;28;20307;-74
2023/03/06 07:52:30;;;;;;;1.30;1.27;;;1.40;99.90;;;;;;5007092;28;20765;-72
2023/03/06 07:54:57;;;;;;;3.03;1.30;;;1.50;99.90;;;;;;5007543;28;20205;-73
2023/03/06 07:57:24;;;;;;;1.70;1.60;;;1.40;99.90;;;;;;5007658;28;20316;-72
2023/03/06 07:59:51;;;;;;;1.60;1.50;;;1.50;99.90;;;;;;5006599;28;20234;-72
2023/03/06 08:02:18;;;;;;;2.00;1.50;;;1.50;99.90;;;;;;5007284;28;20300;-71
2023/03/06 08:04:44;;;;;;;1.67;1.57;;;1.60;99.90;;;;;;5006823;28;20308;-71
2023/03/06 08:07:12;;;;;;;1.53;1.43;;;1.50;99.90;;;;;;5007244;28;20214;-70
2023/03/06 08:09:40;;;;;;;1.57;1.47;;;1.50;99.90;;;;;;5006545;28;20253;-71
2023/03/06 08:12:08;;;;;;;1.40;1.40;;;1.50;99.90;;;;;;5006728;28;20209;-71
2023/03/06 08:14:35;;;;;;;1.60;1.50;;;1.60;99.90;;;;;;5006674;28;20213;-71
2023/03/06 08:17:02;;;;;;;1.60;1.50;;;1.70;99.90;;;;;;5006842;28;20706;-71
2023/03/06 08:19:29;;;;;;;1.60;1.50;;;1.70;99.90;;;;;;5006768;28;20570;-71
2023/03/06 08:21:56;;;;;;;1.63;1.40;;;1.80;99.90;;;;;;5006704;28;20347;-70
2023/03/06 08:24:23;;;;;;;1.80;1.70;;;1.70;99.90;;;;;;5006731;28;20268;-71
2023/03/06 08:26:51;;;;;;;1.67;1.57;;;1.70;99.90;;;;;;5006557;28;20210;-70
2023/03/06 08:29:18;;;;;;;2.40;1.37;;;1.70;99.90;;;;;;5006942;28;20279;-71
2023/03/06 08:31:47;;;;;;;1.70;1.60;;;1.70;99.90;;;;;;5007756;28;20338;-71
2023/03/06 08:34:16;;;;;;;1.60;1.50;;;1.70;99.90;;;;;;5010530;28;20319;-71
2023/03/06 08:36:43;;;;;;;1.83;1.50;;;1.70;99.90;;;;;;5010120;28;20233;-72
2023/03/06 08:39:10;;;;;;;4.03;1.50;;;1.70;99.90;;;;;;5010181;28;20612;-71
2023/03/06 08:41:38;;;;;;;1.80;1.70;;;1.60;99.90;;;;;;5010152;28;20206;-71
2023/03/06 08:44:06;;;;;;;1.50;1.40;;;1.70;99.90;;;;;;5009507;28;20256;-71
2023/03/06 08:46:35;;;;;;;1.17;1.10;;;1.70;99.90;;;;;;5009935;28;20735;-71
2023/03/06 08:49:02;;;;;;;1.77;1.67;;;1.60;99.90;;;;;;5010253;28;20288;-71
2023/03/06 08:51:29;;;;;;;1.40;1.30;;;1.70;99.90;;;;;;5009925;28;20740;-71
2023/03/06 08:53:56;;;;;;;1.60;1.50;;;1.70;99.90;;;;;;5009899;28;20407;-71
2023/03/06 08:56:25;;;;;;;1.40;1.30;;;1.70;99.90;;;;;;5010083;28;20312;-71
2023/03/06 08:58:53;;;;;;;1.60;1.50;;;1.70;99.90;;;;;;5009711;28;20340;-71
2023/03/06 09:01:23;;;;;;;1.67;1.53;;;1.80;99.90;;;;;;5009907;28;20312;-70
2023/03/06 09:03:53;;;;;;;1.57;1.40;;;1.70;99.90;;;;;;5010150;28;20585;-71
2023/03/06 09:06:20;;;;;;;1.47;1.37;;;1.70;99.90;;;;;;5009831;28;20213;-71
2023/03/06 09:08:47;;;;;;;4.50;4.10;;;1.70;99.90;;;;;;5009336;28;20324;-71
2023/03/06 09:11:15;;;;;;;1.63;1.53;;;1.60;99.90;;;;;;5009870;28;20209;-71
2023/03/06 09:13:43;;;;;;;1.13;1.00;;;1.60;99.90;;;;;;5009381;28;20674;-72
2023/03/06 09:16:11;;;;;;;1.10;1.00;;;1.50;99.90;;;;;;5009609;28;20305;-71
2023/03/06 09:18:40;;;;;;;1.03;1.00;;;1.50;99.90;;;;;;5009842;28;20232;-70
2023/03/06 09:21:07;;;;;;;1.20;1.20;;;1.60;99.90;;;;;;5009896;28;20296;-71
2023/03/06 09:23:34;;;;;;;1.63;1.40;;;1.60;99.90;;;;;;5009378;28;20321;-71
2023/03/06 09:26:02;;;;;;;1.17;1.17;;;1.60;99.90;;;;;;5009591;28;20260;-71
2023/03/06 09:28:29;;;;;;;1.20;1.20;;;1.60;99.90;;;;;;5009354;28;20293;-72
2023/03/06 09:30:56;;;;;;;1.40;1.30;;;1.60;99.90;;;;;;5009620;28;20304;-71
2023/03/06 09:33:23;;;;;;;1.40;1.23;;;1.60;99.90;;;;;;5009322;28;20599;-70
2023/03/06 09:35:54;;;;;;;1.43;1.40;;;1.60;99.90;;;;;;5009175;28;20821;-71
2023/03/06 09:38:23;;;;;;;2.57;1.23;;;1.50;99.90;;;;;;5009566;28;20196;-71
2023/03/06 09:41:02;;;;;;;1.60;1.30;;;1.60;99.90;;;;;;5009273;28;20308;-71
2023/03/06 09:43:34;;;;;;;0.90;0.90;;;1.50;99.90;;;;;;5008623;28;20225;-70
2023/03/06 09:46:06;;;;;;;2.33;1.37;;;1.60;99.90;;;;;;5009519;28;20207;-71
2023/03/06 09:48:45;;;;;;;1.13;0.80;;;1.50;99.90;;;;;;5009085;28;20199;-71
2023/03/06 09:51:16;;;;;;;0.83;0.83;;;1.50;99.90;;;;;;5009145;28;20292;-71
2023/03/06 09:53:59;;;;;;;2.03;1.10;;;1.50;99.90;;;;;;5008823;28;20769;-71
2023/03/06 09:56:30;;;;;;;2.20;1.00;;;1.50;99.90;;;;;;5009216;28;20292;-71
2023/03/06 09:59:03;;;;;;;2.53;1.07;;;1.60;99.90;;;;;;5008723;28;20601;-71
2023/03/06 10:01:34;;;;;;;0.90;0.90;;;1.70;99.90;;;;;;5009122;28;20202;-70
2023/03/06 10:04:11;;;;;;;1.00;0.90;;;1.80;99.90;;;;;;5024598;28;20635;-71
2023/03/06 10:06:46;;;;;;;2.00;0.90;;;1.80;99.90;;;;;;5028600;28;20276;-70
2023/03/06 10:09:17;;;;;;;1.87;1.03;;;1.80;99.90;;;;;;5024951;28;20229;-71
2023/03/06 10:11:55;;;;;;;0.80;0.80;;;1.80;99.90;;;;;;5008468;28;20209;-71
2023/03/06 10:14:30;;;;;;;0.73;0.73;;;1.80;99.90;;;;;;5008159;28;20283;-70
2023/03/06 10:16:57;;;;;;;0.97;0.90;;;1.70;99.90;;;;;;5008324;28;20288;-70
2023/03/06 10:19:33;;;;;;;1.27;0.90;;;1.70;99.90;;;;;;5008400;28;20205;-70
2023/03/06 10:22:06;;;;;;;3.03;1.07;;;1.90;99.90;;;;;;5008738;28;20197;-71
2023/03/06 10:24:46;;;;;;;1.60;0.70;;;1.90;99.90;;;;;;5008650;28;20202;-71
2023/03/06 10:27:23;;;;;;;0.80;0.80;;;1.70;99.90;;;;;;5008442;28;20197;-70
2023/03/06 10:30:00;;;;;;;2.00;0.80;;;1.80;99.90;;;;;;5008568;28;20205;-71
2023/03/06 10:32:36;;;;;;;1.17;1.03;;;1.90;99.90;;;;;;5008135;28;20225;-71
2023/03/06 10:35:12;;;;;;;1.10;0.80;;;1.90;99.90;;;;;;5008146;28;20225;-70
2023/03/06 10:37:41;;;;;;;0.87;0.87;;;1.90;99.90;;;;;;4992751;28;20241;-70
2023/03/06 10:40:15;;;;;;;1.67;0.70;;;2.00;99.90;;;;;;4988643;28;20297;-70
2023/03/06 10:42:42;;;;;;;2.67;0.87;;;2.00;99.90;;;;;;4988494;28;20700;-71
2023/03/06 10:45:11;;;;;;;1.43;0.70;;;2.10;99.90;;;;;;4988440;28;20305;-70
2023/03/06 10:47:39;;;;;;;1.10;0.83;;;2.10;99.90;;;;;;4988114;28;20676;-71
2023/03/06 10:50:20;;;;;;;0.70;0.70;;;2.10;99.90;;;;;;4988495;28;20644;-70
2023/03/06 10:52:59;;;;;;;1.73;0.80;;;2.00;99.90;;;;;;4988191;28;20202;-71
2023/03/06 10:55:29;;;;;;;1.27;0.80;;;1.90;99.90;;;;;;4988281;28;20738;-71
2023/03/06 10:57:56;;;;;;;0.60;0.60;;;1.90;99.90;;;;;;4988238;28;20210;-70
2023/03/06 11:00:26;;;;;;;1.83;0.90;;;1.90;99.90;;;;;;4987962;28;20754;-71
2023/03/06 11:03:15;;;;;;;1.17;0.63;;;1.80;99.90;;;;;;4987758;28;20961;-71
2023/03/06 11:05:58;;;;;;;1.73;0.80;;;1.80;99.90;;;;;;4987908;28;21055;-71
2023/03/06 11:08:28;;;;;;;0.67;0.50;;;1.90;99.90;;;;;;4988100;28;20670;-72
2023/03/06 11:10:58;;;;;;;0.70;0.67;;;1.80;99.90;;;;;;5004386;28;20968;-71
2023/03/06 11:13:27;;;;;;;0.90;0.70;;;1.80;99.90;;;;;;5007214;28;20257;-71
2023/03/06 11:16:01;;;;;;;2.27;0.70;;;1.80;99.90;;;;;;5007248;28;20288;-71
2023/03/06 11:18:33;;;;;;;1.07;0.80;;;1.80;99.90;;;;;;5007343;28;20735;-71
2023/03/06 11:21:02;;;;;;;0.77;0.53;;;1.90;99.90;;;;;;5007619;28;20229;-71
2023/03/06 11:23:40;;;;;;;1.23;0.70;;;1.90;99.90;;;;;;5007570;28;20205;-71
2023/03/06 11:26:28;;;;;;;2.17;0.70;;;1.80;99.90;;;;;;5007481;28;20193;-71
2023/03/06 11:29:02;;;;;;;0.80;0.47;;;1.80;99.90;;;;;;5007023;28;20212;-71
2023/03/06 11:31:33;;;;;;;0.53;0.40;;;1.90;99.90;;;;;;5007510;28;20193;-70
2023/03/06 11:34:09;;;;;;;2.87;0.60;;;1.90;99.90;;;;;;5006470;28;20276;-71
2023/03/06 11:36:41;;;;;;;3.20;0.70;;;1.80;99.90;;;;;;5007091;28;20228;-71
2023/03/06 11:39:24;;;;;;;2.43;0.90;;;2.00;99.90;;;;;;5007333;28;20201;-71
2023/03/06 11:41:59;;;;;;;0.87;0.60;;;2.10;99.90;;;;;;5007145;28;20247;-71
2023/03/06 11:44:36;;;;;;;1.27;0.80;;;2.10;99.90;;;;;;5006976;28;20295;-71
2023/03/06 11:47:10;;;;;;;0.50;0.50;;;2.10;99.90;;;;;;5007254;28;20281;-71
2023/03/06 11:49:43;;;;;;;1.77;0.60;;;2.10;99.90;;;;;;5007419;28;20200;-71
2023/03/06 11:52:17;;;;;;;1.83;0.60;;;2.20;99.90;;;;;;5007328;28;20300;-71
2023/03/06 11:54:49;;;;;;;1.23;0.80;;;2.10;99.90;;;;;;5007333;28;20308;-71
2023/03/06 11:57:19;;;;;;;6.80;4.73;;;2.10;99.90;;;;;;5007575;28;20351;-72
2023/03/06 11:59:59;;;;;;;2.40;2.20;;;2.10;99.90;;;;;;5007098;28;20268;-71
2023/03/06 12:02:41;;;;;;;1.30;0.77;;;2.10;99.90;;;;;;5007042;28;20198;-71
2023/03/06 12:05:28;;;;;;;0.57;0.57;;;2.20;99.90;;;;;;5007420;28;20649;-72
2023/03/06 12:08:04;;;;;;;2.17;0.80;;;2.20;99.90;;;;;;5010955;28;20324;-72
2023/03/06 12:10:38;;;;;;;0.80;0.60;;;2.20;99.90;;;;;;5010690;28;20299;-71
2023/03/06 12:13:24;;;;;;;1.63;0.83;;;2.30;99.90;;;;;;5010788;28;20683;-71
2023/03/06 12:16:39;;;;;;;0.67;0.67;;;2.40;99.90;;;;;;5010982;28;20237;-70
2023/03/06 12:19:17;;;;;;;2.37;1.10;;;2.50;99.90;;;;;;4950009;29;20262;-71
2023/03/06 12:21:54;;;;;;;1.50;0.80;;;2.50;99.90;;;;;;4949603;29;20278;-71
2023/03/06 12:24:50;;;;;;;1.00;0.80;;;2.60;99.90;;;;;;4985898;28;20219;-71
2023/03/06 12:27:25;;;;;;;0.43;0.43;;;2.60;99.90;;;;;;5010912;28;20194;-72
2023/03/06 12:30:13;;;;;;;1.20;1.10;;;2.70;99.90;;;;;;5010157;28;20476;-71
2023/03/06 12:32:49;;;;;;;1.70;0.83;;;2.80;99.90;;;;;;5010461;28;20639;-72
2023/03/06 12:35:30;;;;;;;1.20;0.90;;;2.80;99.90;;;;;;5010130;28;20648;-71
2023/03/06 12:38:08;;;;;;;1.60;1.27;;;2.90;99.90;;;;;;5028341;28;20293;-71
2023/03/06 12:40:48;;;;;;;0.87;0.80;;;3.00;99.90;;;;;;5028726;28;20251;-71
2023/03/06 12:43:36;;;;;;;0.57;0.57;;;3.00;99.90;;;;;;5010755;28;20355;-70
2023/03/06 12:46:09;;;;;;;2.93;1.03;;;3.00;99.90;;;;;;5010315;28;20205;-70
2023/03/06 12:48:37;;;;;;;1.10;0.80;;;3.10;99.90;;;;;;5010050;28;20553;-72
2023/03/06 12:51:07;;;;;;;1.23;0.80;;;3.20;99.90;;;;;;5010295;28;20296;-71
2023/03/06 12:53:35;;;;;;;1.20;1.10;;;3.30;99.90;;;;;;5009909;28;20216;-72
2023/03/06 12:56:03;;;;;;;1.43;0.70;;;3.50;99.90;;;;;;5009961;28;20319;-72
2023/03/06 12:58:47;;;;;;;2.83;0.87;;;3.60;99.90;;;;;;5009538;28;20743;-71
2023/03/06 13:01:28;;;;;;;2.17;1.07;;;3.80;99.90;;;;;;5009868;28;20223;-71
2023/03/06 13:04:05;;;;;;;1.17;0.80;;;4.00;99.90;;;;;;5009715;28;20673;-71
2023/03/06 13:06:48;;;;;;;1.20;1.00;;;4.10;99.90;;;;;;5009524;28;20225;-71
2023/03/06 13:09:21;;;;;;;1.93;0.80;;;4.30;99.90;;;;;;5009628;28;20233;-70
2023/03/06 13:12:11;;;;;;;2.30;0.87;;;4.40;99.90;;;;;;5009632;28;20205;-71